sensor_id;sensor_type;location;lat;lon;timestamp;P1;durP1;ratioP1;P2;durP2;ratioP2
12550;SDS011;6341;51.434;6.792;2022-07-23T00:04:25;9.23;;;4.47;;
12550;SDS011;6341;51.434;6.792;2022-07-23T00:09:50;5.20;;;4.03;;
12550;SDS011;6341;51.434;6.792;2022-07-23T00:15:14;4.93;;;4.40;;
12550;SDS011;6341;51.434;6.792;2022-07-23T00:20:37;7.17;;;3.60;;
12550;SDS011;6341;51.434;6.792;2022-07-23T00:26:03;4.47;;;3.53;;
12550;SDS011;6341;51.434;6.792;2022-07-23T00:31:29;8.97;;;4.17;;
12550;SDS011;6341;51.434;6.792;2022-07-23T00:36:52;5.23;;;3.57;;
12550;SDS011;6341;51.434;6.792;2022-07-23T00:42:17;6.20;;;3.30;;
12550;SDS011;6341;51.434;6.792;2022-07-23T00:47:41;7.73;;;3.23;;
12550;SDS011;6341;51.434;6.792;2022-07-23T00:53:05;6.00;;;3.70;;
12550;SDS011;6341;51.434;6.792;2022-07-23T00:58:31;7.43;;;3.77;;
12550;SDS011;6341;51.434;6.792;2022-07-23T01:03:57;4.50;;;3.80;;
12550;SDS011;6341;51.434;6.792;2022-07-23T01:09:20;5.30;;;3.83;;
12550;SDS011;6341;51.434;6.792;2022-07-23T01:14:46;8.63;;;4.47;;
12550;SDS011;6341;51.434;6.792;2022-07-23T01:20:16;5.57;;;3.47;;
12550;SDS011;6341;51.434;6.792;2022-07-23T01:25:51;5.47;;;3.87;;
12550;SDS011;6341;51.434;6.792;2022-07-23T01:31:15;6.50;;;3.93;;
12550;SDS011;6341;51.434;6.792;2022-07-23T01:36:39;5.13;;;4.50;;
12550;SDS011;6341;51.434;6.792;2022-07-23T01:42:05;7.93;;;3.83;;
12550;SDS011;6341;51.434;6.792;2022-07-23T01:47:28;7.57;;;4.47;;
12550;SDS011;6341;51.434;6.792;2022-07-23T01:52:52;6.33;;;3.60;;
12550;SDS011;6341;51.434;6.792;2022-07-23T01:58:17;6.60;;;4.33;;
12550;SDS011;6341;51.434;6.792;2022-07-23T02:03:40;12.70;;;4.87;;
12550;SDS011;6341;51.434;6.792;2022-07-23T02:09:04;5.50;;;4.20;;
12550;SDS011;6341;51.434;6.792;2022-07-23T02:14:28;7.90;;;4.33;;
12550;SDS011;6341;51.434;6.792;2022-07-23T02:19:52;4.37;;;3.43;;
12550;SDS011;6341;51.434;6.792;2022-07-23T02:25:16;6.07;;;4.23;;
12550;SDS011;6341;51.434;6.792;2022-07-23T02:30:42;7.13;;;4.00;;
12550;SDS011;6341;51.434;6.792;2022-07-23T02:36:05;5.80;;;4.13;;
12550;SDS011;6341;51.434;6.792;2022-07-23T02:41:29;6.80;;;4.67;;
12550;SDS011;6341;51.434;6.792;2022-07-23T02:46:55;7.80;;;4.10;;
12550;SDS011;6341;51.434;6.792;2022-07-23T02:52:18;7.37;;;4.63;;
12550;SDS011;6341;51.434;6.792;2022-07-23T02:57:43;6.60;;;4.43;;
12550;SDS011;6341;51.434;6.792;2022-07-23T03:03:08;4.23;;;3.83;;
12550;SDS011;6341;51.434;6.792;2022-07-23T03:08:32;5.87;;;4.13;;
12550;SDS011;6341;51.434;6.792;2022-07-23T03:13:55;6.53;;;4.43;;
12550;SDS011;6341;51.434;6.792;2022-07-23T03:19:20;5.43;;;4.67;;
12550;SDS011;6341;51.434;6.792;2022-07-23T03:24:44;6.23;;;4.20;;
12550;SDS011;6341;51.434;6.792;2022-07-23T03:30:17;5.57;;;3.83;;
12550;SDS011;6341;51.434;6.792;2022-07-23T03:35:42;5.07;;;4.10;;
12550;SDS011;6341;51.434;6.792;2022-07-23T03:41:08;7.47;;;5.00;;
12550;SDS011;6341;51.434;6.792;2022-07-23T03:46:32;5.17;;;3.93;;
12550;SDS011;6341;51.434;6.792;2022-07-23T03:51:57;4.80;;;3.73;;
12550;SDS011;6341;51.434;6.792;2022-07-23T03:57:22;4.70;;;4.17;;
12550;SDS011;6341;51.434;6.792;2022-07-23T04:02:45;6.33;;;4.10;;
12550;SDS011;6341;51.434;6.792;2022-07-23T04:08:10;5.03;;;4.00;;
12550;SDS011;6341;51.434;6.792;2022-07-23T04:13:34;7.47;;;4.30;;
12550;SDS011;6341;51.434;6.792;2022-07-23T04:18:58;4.30;;;3.30;;
12550;SDS011;6341;51.434;6.792;2022-07-23T04:24:26;4.27;;;3.17;;
12550;SDS011;6341;51.434;6.792;2022-07-23T04:29:49;5.20;;;4.07;;
12550;SDS011;6341;51.434;6.792;2022-07-23T04:35:13;5.63;;;4.30;;
12550;SDS011;6341;51.434;6.792;2022-07-23T04:40:40;5.73;;;4.47;;
12550;SDS011;6341;51.434;6.792;2022-07-23T04:46:03;4.13;;;3.60;;
12550;SDS011;6341;51.434;6.792;2022-07-23T04:51:27;6.63;;;5.27;;
12550;SDS011;6341;51.434;6.792;2022-07-23T04:56:53;6.37;;;4.80;;
12550;SDS011;6341;51.434;6.792;2022-07-23T05:02:16;4.50;;;3.63;;
12550;SDS011;6341;51.434;6.792;2022-07-23T05:07:41;6.50;;;3.93;;
12550;SDS011;6341;51.434;6.792;2022-07-23T05:13:06;7.63;;;4.50;;
12550;SDS011;6341;51.434;6.792;2022-07-23T05:18:30;9.77;;;5.33;;
12550;SDS011;6341;51.434;6.792;2022-07-23T05:23:53;6.53;;;4.67;;
12550;SDS011;6341;51.434;6.792;2022-07-23T05:29:18;8.67;;;5.57;;
12550;SDS011;6341;51.434;6.792;2022-07-23T05:34:44;6.60;;;5.83;;
12550;SDS011;6341;51.434;6.792;2022-07-23T05:40:08;11.53;;;5.50;;
12550;SDS011;6341;51.434;6.792;2022-07-23T05:45:34;8.53;;;6.87;;
12550;SDS011;6341;51.434;6.792;2022-07-23T05:50:58;9.30;;;6.30;;
12550;SDS011;6341;51.434;6.792;2022-07-23T05:56:22;4.03;;;3.40;;
12550;SDS011;6341;51.434;6.792;2022-07-23T06:01:47;8.27;;;6.77;;
12550;SDS011;6341;51.434;6.792;2022-07-23T06:07:10;9.60;;;5.37;;
12550;SDS011;6341;51.434;6.792;2022-07-23T06:12:34;9.03;;;6.93;;
12550;SDS011;6341;51.434;6.792;2022-07-23T06:17:59;8.30;;;4.80;;
12550;SDS011;6341;51.434;6.792;2022-07-23T06:23:23;7.73;;;6.70;;
12550;SDS011;6341;51.434;6.792;2022-07-23T06:28:46;7.73;;;6.63;;
12550;SDS011;6341;51.434;6.792;2022-07-23T06:34:11;9.40;;;7.87;;
12550;SDS011;6341;51.434;6.792;2022-07-23T06:39:35;14.33;;;9.57;;
12550;SDS011;6341;51.434;6.792;2022-07-23T06:45:00;12.27;;;9.27;;
12550;SDS011;6341;51.434;6.792;2022-07-23T06:50:25;12.00;;;6.50;;
12550;SDS011;6341;51.434;6.792;2022-07-23T06:55:49;10.90;;;8.33;;
12550;SDS011;6341;51.434;6.792;2022-07-23T07:01:12;11.13;;;9.03;;
12550;SDS011;6341;51.434;6.792;2022-07-23T07:06:37;13.80;;;9.60;;
12550;SDS011;6341;51.434;6.792;2022-07-23T07:12:01;10.23;;;8.07;;
12550;SDS011;6341;51.434;6.792;2022-07-23T07:17:24;9.43;;;7.00;;
12550;SDS011;6341;51.434;6.792;2022-07-23T07:22:49;12.07;;;7.57;;
12550;SDS011;6341;51.434;6.792;2022-07-23T07:28:13;12.37;;;7.20;;
12550;SDS011;6341;51.434;6.792;2022-07-23T07:33:37;8.97;;;7.47;;
12550;SDS011;6341;51.434;6.792;2022-07-23T07:39:02;13.30;;;7.83;;
12550;SDS011;6341;51.434;6.792;2022-07-23T07:44:26;9.97;;;7.03;;
12550;SDS011;6341;51.434;6.792;2022-07-23T07:49:50;9.35;;;6.60;;
12550;SDS011;6341;51.434;6.792;2022-07-23T07:55:15;13.40;;;7.60;;
12550;SDS011;6341;51.434;6.792;2022-07-23T08:00:38;10.52;;;8.75;;
12550;SDS011;6341;51.434;6.792;2022-07-23T08:06:02;13.90;;;10.13;;
12550;SDS011;6341;51.434;6.792;2022-07-23T08:11:26;9.48;;;6.88;;
12550;SDS011;6341;51.434;6.792;2022-07-23T08:16:50;11.10;;;6.50;;
12550;SDS011;6341;51.434;6.792;2022-07-23T08:22:43;9.38;;;4.95;;
12550;SDS011;6341;51.434;6.792;2022-07-23T08:28:09;5.78;;;3.95;;
12550;SDS011;6341;51.434;6.792;2022-07-23T08:33:33;7.30;;;3.15;;
12550;SDS011;6341;51.434;6.792;2022-07-23T08:38:57;5.93;;;3.65;;
12550;SDS011;6341;51.434;6.792;2022-07-23T08:44:23;5.10;;;3.05;;
12550;SDS011;6341;51.434;6.792;2022-07-23T08:49:47;5.90;;;3.15;;
12550;SDS011;6341;51.434;6.792;2022-07-23T08:55:12;7.07;;;3.88;;
12550;SDS011;6341;51.434;6.792;2022-07-23T09:00:36;15.40;;;5.65;;
12550;SDS011;6341;51.434;6.792;2022-07-23T09:06:00;11.38;;;5.35;;
12550;SDS011;6341;51.434;6.792;2022-07-23T09:11:24;8.32;;;5.30;;
12550;SDS011;6341;51.434;6.792;2022-07-23T09:16:49;9.88;;;4.93;;
12550;SDS011;6341;51.434;6.792;2022-07-23T09:22:17;8.57;;;4.05;;
12550;SDS011;6341;51.434;6.792;2022-07-23T09:27:50;6.85;;;3.70;;
12550;SDS011;6341;51.434;6.792;2022-07-23T09:33:17;5.05;;;3.10;;
12550;SDS011;6341;51.434;6.792;2022-07-23T09:38:48;9.73;;;4.47;;
12550;SDS011;6341;51.434;6.792;2022-07-23T09:44:13;4.70;;;3.13;;
12550;SDS011;6341;51.434;6.792;2022-07-23T09:49:40;6.25;;;3.45;;
12550;SDS011;6341;51.434;6.792;2022-07-23T09:55:19;5.35;;;3.13;;
12550;SDS011;6341;51.434;6.792;2022-07-23T10:00:57;4.68;;;3.00;;
12550;SDS011;6341;51.434;6.792;2022-07-23T10:06:22;6.88;;;2.67;;
12550;SDS011;6341;51.434;6.792;2022-07-23T10:11:47;6.20;;;2.97;;
12550;SDS011;6341;51.434;6.792;2022-07-23T10:17:10;6.50;;;2.70;;
12550;SDS011;6341;51.434;6.792;2022-07-23T10:22:36;4.45;;;2.35;;
12550;SDS011;6341;51.434;6.792;2022-07-23T10:28:10;5.95;;;3.20;;
12550;SDS011;6341;51.434;6.792;2022-07-23T10:33:45;3.80;;;2.55;;
12550;SDS011;6341;51.434;6.792;2022-07-23T10:39:19;8.40;;;2.95;;
12550;SDS011;6341;51.434;6.792;2022-07-23T10:44:46;5.57;;;2.55;;
12550;SDS011;6341;51.434;6.792;2022-07-23T10:50:16;5.13;;;2.30;;
12550;SDS011;6341;51.434;6.792;2022-07-23T10:55:44;4.18;;;2.30;;
12550;SDS011;6341;51.434;6.792;2022-07-23T11:07:07;3.88;;;2.28;;
12550;SDS011;6341;51.434;6.792;2022-07-23T11:12:45;3.58;;;2.13;;
12550;SDS011;6341;51.434;6.792;2022-07-23T11:18:08;3.97;;;2.50;;
12550;SDS011;6341;51.434;6.792;2022-07-23T11:35:20;5.30;;;2.03;;
12550;SDS011;6341;51.434;6.792;2022-07-23T11:40:50;3.28;;;2.28;;
12550;SDS011;6341;51.434;6.792;2022-07-23T11:46:17;3.95;;;1.70;;
12550;SDS011;6341;51.434;6.792;2022-07-23T11:51:40;3.25;;;1.80;;
12550;SDS011;6341;51.434;6.792;2022-07-23T11:57:03;5.80;;;2.17;;
12550;SDS011;6341;51.434;6.792;2022-07-23T12:02:30;5.20;;;2.50;;
12550;SDS011;6341;51.434;6.792;2022-07-23T12:07:54;3.15;;;2.20;;
12550;SDS011;6341;51.434;6.792;2022-07-23T12:13:19;3.38;;;2.40;;
12550;SDS011;6341;51.434;6.792;2022-07-23T12:18:47;3.58;;;1.98;;
12550;SDS011;6341;51.434;6.792;2022-07-23T12:24:11;3.47;;;1.90;;
12550;SDS011;6341;51.434;6.792;2022-07-23T12:29:34;4.82;;;2.45;;
12550;SDS011;6341;51.434;6.792;2022-07-23T12:35:04;4.40;;;2.00;;
12550;SDS011;6341;51.434;6.792;2022-07-23T12:40:30;2.10;;;1.73;;
12550;SDS011;6341;51.434;6.792;2022-07-23T12:45:54;4.53;;;2.30;;
12550;SDS011;6341;51.434;6.792;2022-07-23T12:51:21;3.03;;;2.03;;
12550;SDS011;6341;51.434;6.792;2022-07-23T12:56:46;3.28;;;1.95;;
12550;SDS011;6341;51.434;6.792;2022-07-23T13:02:10;4.68;;;2.22;;
12550;SDS011;6341;51.434;6.792;2022-07-23T13:07:35;2.60;;;2.05;;
12550;SDS011;6341;51.434;6.792;2022-07-23T13:12:59;2.97;;;1.80;;
12550;SDS011;6341;51.434;6.792;2022-07-23T13:18:22;2.80;;;1.77;;
12550;SDS011;6341;51.434;6.792;2022-07-23T13:23:48;5.25;;;2.30;;
12550;SDS011;6341;51.434;6.792;2022-07-23T13:29:11;2.33;;;2.08;;
12550;SDS011;6341;51.434;6.792;2022-07-23T13:34:38;3.20;;;1.90;;
12550;SDS011;6341;51.434;6.792;2022-07-23T13:40:05;4.45;;;1.80;;
12550;SDS011;6341;51.434;6.792;2022-07-23T13:45:38;4.75;;;2.10;;
12550;SDS011;6341;51.434;6.792;2022-07-23T13:51:04;4.30;;;1.98;;
12550;SDS011;6341;51.434;6.792;2022-07-23T13:56:28;2.05;;;1.80;;
12550;SDS011;6341;51.434;6.792;2022-07-23T14:01:52;2.30;;;2.10;;
12550;SDS011;6341;51.434;6.792;2022-07-23T14:07:36;4.15;;;2.25;;
12550;SDS011;6341;51.434;6.792;2022-07-23T14:13:01;3.42;;;2.25;;
12550;SDS011;6341;51.434;6.792;2022-07-23T14:18:26;2.35;;;2.10;;
12550;SDS011;6341;51.434;6.792;2022-07-23T14:23:54;4.43;;;2.15;;
12550;SDS011;6341;51.434;6.792;2022-07-23T14:29:18;3.00;;;2.25;;
12550;SDS011;6341;51.434;6.792;2022-07-23T14:34:42;3.75;;;2.10;;
12550;SDS011;6341;51.434;6.792;2022-07-23T14:40:10;3.22;;;1.92;;
12550;SDS011;6341;51.434;6.792;2022-07-23T14:45:35;3.85;;;2.33;;
12550;SDS011;6341;51.434;6.792;2022-07-23T14:51:00;5.13;;;2.50;;
12550;SDS011;6341;51.434;6.792;2022-07-23T14:56:24;3.15;;;2.28;;
12550;SDS011;6341;51.434;6.792;2022-07-23T15:01:48;2.22;;;2.03;;
12550;SDS011;6341;51.434;6.792;2022-07-23T15:07:14;3.63;;;2.20;;
12550;SDS011;6341;51.434;6.792;2022-07-23T15:12:37;3.30;;;2.50;;
12550;SDS011;6341;51.434;6.792;2022-07-23T15:18:02;4.68;;;2.53;;
12550;SDS011;6341;51.434;6.792;2022-07-23T15:23:26;3.65;;;2.13;;
12550;SDS011;6341;51.434;6.792;2022-07-23T15:28:51;4.00;;;2.22;;
12550;SDS011;6341;51.434;6.792;2022-07-23T15:34:16;3.10;;;2.30;;
12550;SDS011;6341;51.434;6.792;2022-07-23T15:39:40;4.93;;;2.55;;
12550;SDS011;6341;51.434;6.792;2022-07-23T15:45:07;2.83;;;2.10;;
12550;SDS011;6341;51.434;6.792;2022-07-23T15:50:33;2.03;;;1.63;;
12550;SDS011;6341;51.434;6.792;2022-07-23T15:55:56;4.78;;;2.40;;
12550;SDS011;6341;51.434;6.792;2022-07-23T16:01:24;3.58;;;2.30;;
12550;SDS011;6341;51.434;6.792;2022-07-23T16:06:52;3.83;;;2.40;;
12550;SDS011;6341;51.434;6.792;2022-07-23T16:12:15;3.00;;;2.53;;
12550;SDS011;6341;51.434;6.792;2022-07-23T16:17:38;5.75;;;2.72;;
12550;SDS011;6341;51.434;6.792;2022-07-23T16:23:03;4.82;;;2.50;;
12550;SDS011;6341;51.434;6.792;2022-07-23T16:28:29;4.07;;;2.53;;
12550;SDS011;6341;51.434;6.792;2022-07-23T16:33:52;6.30;;;2.65;;
12550;SDS011;6341;51.434;6.792;2022-07-23T16:39:18;9.82;;;2.85;;
12550;SDS011;6341;51.434;6.792;2022-07-23T16:44:42;2.55;;;2.22;;
12550;SDS011;6341;51.434;6.792;2022-07-23T16:50:06;6.22;;;2.75;;
12550;SDS011;6341;51.434;6.792;2022-07-23T16:55:31;6.55;;;2.70;;
12550;SDS011;6341;51.434;6.792;2022-07-23T17:00:55;2.78;;;2.00;;
12550;SDS011;6341;51.434;6.792;2022-07-23T17:06:19;6.30;;;2.17;;
12550;SDS011;6341;51.434;6.792;2022-07-23T17:11:44;4.53;;;2.50;;
12550;SDS011;6341;51.434;6.792;2022-07-23T17:17:08;4.53;;;2.78;;
12550;SDS011;6341;51.434;6.792;2022-07-23T17:22:32;3.25;;;2.38;;
12550;SDS011;6341;51.434;6.792;2022-07-23T17:27:58;6.18;;;2.70;;
12550;SDS011;6341;51.434;6.792;2022-07-23T17:33:24;4.28;;;2.22;;
12550;SDS011;6341;51.434;6.792;2022-07-23T17:38:48;2.85;;;2.40;;
12550;SDS011;6341;51.434;6.792;2022-07-23T17:44:14;4.78;;;2.53;;
12550;SDS011;6341;51.434;6.792;2022-07-23T17:49:38;3.53;;;2.75;;
12550;SDS011;6341;51.434;6.792;2022-07-23T18:14:18;2.78;;;2.50;;
12550;SDS011;6341;51.434;6.792;2022-07-23T18:20:34;2.58;;;2.17;;
12550;SDS011;6341;51.434;6.792;2022-07-23T18:26:53;4.32;;;2.60;;
12550;SDS011;6341;51.434;6.792;2022-07-23T18:32:22;4.23;;;2.57;;
12550;SDS011;6341;51.434;6.792;2022-07-23T18:37:45;4.15;;;2.90;;
12550;SDS011;6341;51.434;6.792;2022-07-23T18:43:09;3.53;;;2.80;;
12550;SDS011;6341;51.434;6.792;2022-07-23T18:48:34;3.97;;;2.77;;
12550;SDS011;6341;51.434;6.792;2022-07-23T18:54:02;4.70;;;2.90;;
12550;SDS011;6341;51.434;6.792;2022-07-23T18:59:29;3.78;;;2.42;;
12550;SDS011;6341;51.434;6.792;2022-07-23T19:04:55;4.67;;;2.87;;
12550;SDS011;6341;51.434;6.792;2022-07-23T19:10:19;5.38;;;2.88;;
12550;SDS011;6341;51.434;6.792;2022-07-23T19:15:46;3.78;;;2.90;;
12550;SDS011;6341;51.434;6.792;2022-07-23T19:21:11;4.90;;;3.00;;
12550;SDS011;6341;51.434;6.792;2022-07-23T19:26:35;3.70;;;2.80;;
12550;SDS011;6341;51.434;6.792;2022-07-23T19:31:59;3.50;;;2.80;;
12550;SDS011;6341;51.434;6.792;2022-07-23T19:37:24;5.00;;;3.20;;
12550;SDS011;6341;51.434;6.792;2022-07-23T19:42:47;6.13;;;3.00;;
12550;SDS011;6341;51.434;6.792;2022-07-23T19:48:11;3.50;;;2.57;;
12550;SDS011;6341;51.434;6.792;2022-07-23T19:53:36;5.07;;;3.00;;
12550;SDS011;6341;51.434;6.792;2022-07-23T19:59:00;4.93;;;2.80;;
12550;SDS011;6341;51.434;6.792;2022-07-23T20:04:26;4.77;;;2.27;;
12550;SDS011;6341;51.434;6.792;2022-07-23T20:09:52;4.93;;;3.00;;
12550;SDS011;6341;51.434;6.792;2022-07-23T20:15:15;2.80;;;2.50;;
12550;SDS011;6341;51.434;6.792;2022-07-23T20:20:39;2.80;;;2.57;;
12550;SDS011;6341;51.434;6.792;2022-07-23T20:26:04;3.93;;;2.70;;
12550;SDS011;6341;51.434;6.792;2022-07-23T20:31:29;3.87;;;2.77;;
12550;SDS011;6341;51.434;6.792;2022-07-23T20:36:54;3.43;;;2.67;;
12550;SDS011;6341;51.434;6.792;2022-07-23T20:42:19;3.83;;;3.10;;
12550;SDS011;6341;51.434;6.792;2022-07-23T20:47:42;3.80;;;3.00;;
12550;SDS011;6341;51.434;6.792;2022-07-23T20:53:06;5.07;;;3.50;;
12550;SDS011;6341;51.434;6.792;2022-07-23T20:58:31;4.67;;;3.43;;
12550;SDS011;6341;51.434;6.792;2022-07-23T21:03:55;5.73;;;3.33;;
12550;SDS011;6341;51.434;6.792;2022-07-23T21:09:28;3.90;;;3.20;;
12550;SDS011;6341;51.434;6.792;2022-07-23T21:14:53;3.40;;;2.97;;
12550;SDS011;6341;51.434;6.792;2022-07-23T21:20:17;6.17;;;3.40;;
12550;SDS011;6341;51.434;6.792;2022-07-23T21:25:43;6.10;;;3.70;;
12550;SDS011;6341;51.434;6.792;2022-07-23T21:31:08;4.37;;;3.27;;
12550;SDS011;6341;51.434;6.792;2022-07-23T21:36:33;4.10;;;3.47;;
12550;SDS011;6341;51.434;6.792;2022-07-23T21:41:57;6.00;;;3.50;;
12550;SDS011;6341;51.434;6.792;2022-07-23T21:47:22;5.10;;;3.77;;
12550;SDS011;6341;51.434;6.792;2022-07-23T21:52:45;4.30;;;3.77;;
12550;SDS011;6341;51.434;6.792;2022-07-23T21:58:10;6.57;;;4.63;;
12550;SDS011;6341;51.434;6.792;2022-07-23T22:03:35;5.93;;;3.80;;
12550;SDS011;6341;51.434;6.792;2022-07-23T22:08:59;9.00;;;3.70;;
12550;SDS011;6341;51.434;6.792;2022-07-23T22:14:23;8.63;;;4.10;;
12550;SDS011;6341;51.434;6.792;2022-07-23T22:19:49;4.93;;;3.70;;
12550;SDS011;6341;51.434;6.792;2022-07-23T22:25:13;5.87;;;4.10;;
12550;SDS011;6341;51.434;6.792;2022-07-23T22:30:37;6.93;;;4.07;;
12550;SDS011;6341;51.434;6.792;2022-07-23T22:36:02;5.10;;;4.00;;
12550;SDS011;6341;51.434;6.792;2022-07-23T22:41:26;4.80;;;4.00;;
12550;SDS011;6341;51.434;6.792;2022-07-23T22:46:50;5.03;;;3.27;;
12550;SDS011;6341;51.434;6.792;2022-07-23T22:52:15;6.27;;;3.80;;
12550;SDS011;6341;51.434;6.792;2022-07-23T22:57:38;4.80;;;3.20;;
12550;SDS011;6341;51.434;6.792;2022-07-23T23:03:02;5.87;;;3.33;;
12550;SDS011;6341;51.434;6.792;2022-07-23T23:08:27;4.00;;;3.40;;
12550;SDS011;6341;51.434;6.792;2022-07-23T23:13:51;4.40;;;3.13;;
12550;SDS011;6341;51.434;6.792;2022-07-23T23:19:15;4.20;;;3.00;;
12550;SDS011;6341;51.434;6.792;2022-07-23T23:24:39;5.67;;;3.83;;
12550;SDS011;6341;51.434;6.792;2022-07-23T23:30:03;5.80;;;3.00;;
12550;SDS011;6341;51.434;6.792;2022-07-23T23:35:29;4.80;;;3.07;;
12550;SDS011;6341;51.434;6.792;2022-07-23T23:40:54;6.50;;;2.97;;
12550;SDS011;6341;51.434;6.792;2022-07-23T23:46:17;4.80;;;3.10;;
12550;SDS011;6341;51.434;6.792;2022-07-23T23:51:41;3.40;;;2.60;;
12550;SDS011;6341;51.434;6.792;2022-07-23T23:57:06;3.57;;;3.00;;
